^^
Your Local Weather - Clay, NY Station Historical Data
Daily Summary for March 9, 2018 Units:  English    Metric   Both
« Previous Day
Next Day »
Daily Weekly Monthly Yearly Custom
  High: Low: Average:
Temperature: 35.9 °F 26.7 °F 30.5 °F
Dew Point: 30.2 °F 21.4 °F 26 °F
Humidity: 92% 64% 84%
Wind Speed: 7.0mph 1.0mph 3.6mph
Wind Gust: 16.0mph - -
Wind- - West
Pressure: 29.79 in 29.59 in -
Precipitation: 0.16 in    
Historical Graphs
 
 
Tabular Data for March 9, 2018
Time Temperature Dew Point Pressure Wind Wind Speed Wind Gust Humidity Rainfall Rate (Hourly) solar
00:04 26.7 °F 21.4 °F 29.62 in West 1.0 mph 3.0 mph 80% 0.00 in 0 W/m2
00:10 26.8 °F 21.8 °F 29.62 in WSW 2.0 mph 2.0 mph 81% 0.00 in 0 W/m2
00:16 26.8 °F 21.8 °F 29.62 in WSW 1.0 mph 2.0 mph 81% 0.00 in 0 W/m2
00:22 26.8 °F 21.8 °F 29.62 in West 2.0 mph 4.0 mph 81% 0.00 in 0 W/m2
00:28 26.9 °F 21.8 °F 29.62 in WSW 2.0 mph 4.0 mph 81% 0.00 in 0 W/m2
00:34 27.0 °F 21.9 °F 29.62 in WSW 2.0 mph 4.0 mph 81% 0.00 in 0 W/m2
00:40 27.1 °F 22.3 °F 29.62 in WSW 2.0 mph 2.0 mph 82% 0.00 in 0 W/m2
00:46 27.1 °F 22.3 °F 29.62 in WSW 3.0 mph 4.0 mph 82% 0.00 in 0 W/m2
00:52 27.2 °F 22.4 °F 29.62 in WSW 2.0 mph 3.0 mph 82% 0.00 in 0 W/m2
00:58 27.2 °F 22.4 °F 29.62 in West 2.0 mph 4.0 mph 82% 0.00 in 0 W/m2
01:04 27.2 °F 22.4 °F 29.61 in SW 2.0 mph 8.0 mph 82% 0.00 in 0 W/m2
01:10 27.2 °F 22.4 °F 29.61 in West 3.0 mph 3.0 mph 82% 0.00 in 0 W/m2
01:16 27.3 °F 22.5 °F 29.62 in WSW 3.0 mph 3.0 mph 82% 0.00 in 0 W/m2
01:22 27.3 °F 22.5 °F 29.62 in WSW 1.0 mph 2.0 mph 82% 0.00 in 0 W/m2
01:28 27.3 °F 22.8 °F 29.61 in West 1.0 mph 3.0 mph 83% 0.00 in 0 W/m2
01:34 27.3 °F 22.8 °F 29.61 in West 2.0 mph 3.0 mph 83% 0.00 in 0 W/m2
01:40 27.3 °F 22.8 °F 29.61 in West 2.0 mph 2.0 mph 83% 0.00 in 0 W/m2
01:46 27.3 °F 22.8 °F 29.61 in WSW 2.0 mph 4.0 mph 83% 0.00 in 0 W/m2
01:52 27.3 °F 22.8 °F 29.61 in SW 2.0 mph 2.0 mph 83% 0.00 in 0 W/m2
01:58 27.3 °F 23.1 °F 29.60 in WSW 2.0 mph 2.0 mph 84% 0.00 in 0 W/m2
02:04 27.2 °F 23.0 °F 29.60 in WSW 2.0 mph 3.0 mph 84% 0.00 in 0 W/m2
02:10 27.2 °F 23.0 °F 29.60 in SW 2.0 mph 2.0 mph 84% 0.00 in 0 W/m2
02:16 27.2 °F 23.3 °F 29.60 in WSW 2.0 mph 4.0 mph 85% 0.00 in 0 W/m2
02:22 27.1 °F 23.2 °F 29.60 in West 2.0 mph 2.0 mph 85% 0.00 in 0 W/m2
02:28 27.0 °F 23.4 °F 29.60 in WSW 2.0 mph 4.0 mph 86% 0.00 in 0 W/m2
02:34 27.0 °F 23.4 °F 29.60 in West 2.0 mph 5.0 mph 86% 0.00 in 0 W/m2
02:40 27.1 °F 23.5 °F 29.60 in West 2.0 mph 2.0 mph 86% 0.00 in 0 W/m2
02:46 27.1 °F 23.5 °F 29.60 in West 1.0 mph 2.0 mph 86% 0.00 in 0 W/m2
02:52 27.1 °F 23.5 °F 29.60 in West 1.0 mph 1.0 mph 86% 0.00 in 0 W/m2
02:58 27.1 °F 23.5 °F 29.59 in SW 1.0 mph 2.0 mph 86% 0.00 in 0 W/m2
03:04 27.2 °F 23.6 °F 29.59 in WSW 2.0 mph 2.0 mph 86% 0.00 in 0 W/m2
03:10 27.3 °F 23.7 °F 29.59 in WSW 3.0 mph 3.0 mph 86% 0.00 in 0 W/m2
03:16 27.3 °F 23.7 °F 29.59 in West 3.0 mph 3.0 mph 86% 0.00 in 0 W/m2
03:22 27.4 °F 23.8 °F 29.60 in West 2.0 mph 2.0 mph 86% 0.00 in 0 W/m2
03:28 27.4 °F 23.8 °F 29.60 in WSW 2.0 mph 5.0 mph 86% 0.00 in 0 W/m2
03:34 27.3 °F 23.7 °F 29.60 in WSW 3.0 mph 3.0 mph 86% 0.00 in 0 W/m2
03:40 27.3 °F 23.7 °F 29.60 in West 2.0 mph 4.0 mph 86% 0.00 in 0 W/m2
03:46 27.2 °F 23.6 °F 29.59 in WSW 2.0 mph 4.0 mph 86% 0.00 in 0 W/m2
03:52 27.2 °F 23.8 °F 29.59 in WSW 3.0 mph 5.0 mph 87% 0.00 in 0 W/m2
03:58 27.2 °F 23.8 °F 29.59 in WSW 3.0 mph 6.0 mph 87% 0.00 in 0 W/m2
04:04 27.1 °F 23.7 °F 29.60 in WSW 3.0 mph 5.0 mph 87% 0.00 in 0 W/m2
04:10 27.0 °F 23.9 °F 29.60 in WSW 3.0 mph 5.0 mph 88% 0.00 in 0 W/m2
04:16 27.0 °F 23.9 °F 29.60 in West 3.0 mph 5.0 mph 88% 0.00 in 0 W/m2
04:22 27.0 °F 23.9 °F 29.60 in WSW 3.0 mph 3.0 mph 88% 0.00 in 0 W/m2
04:28 26.9 °F 23.8 °F 29.60 in WSW 3.0 mph 3.0 mph 88% 0.00 in 0 W/m2
04:34 27.0 °F 23.9 °F 29.60 in SW 3.0 mph 6.0 mph 88% 0.00 in 0 W/m2
04:40 27.0 °F 23.9 °F 29.60 in West 3.0 mph 3.0 mph 88% 0.00 in 0 W/m2
04:46 27.1 °F 24.0 °F 29.59 in SSW 3.0 mph 4.0 mph 88% 0.00 in 0 W/m2
04:52 27.1 °F 24.0 °F 29.59 in SW 4.0 mph 7.0 mph 88% 0.00 in 0 W/m2
04:58 27.2 °F 24.1 °F 29.59 in WSW 4.0 mph 7.0 mph 88% 0.00 in 0 W/m2
05:04 27.2 °F 24.1 °F 29.59 in West 3.0 mph 4.0 mph 88% 0.00 in 0 W/m2
05:10 27.2 °F 24.1 °F 29.59 in West 4.0 mph 6.0 mph 88% 0.00 in 0 W/m2
05:16 27.3 °F 24.2 °F 29.59 in SW 3.0 mph 6.0 mph 88% 0.00 in 0 W/m2
05:22 27.2 °F 24.1 °F 29.60 in West 3.0 mph 8.0 mph 88% 0.00 in 0 W/m2
05:28 27.2 °F 24.1 °F 29.60 in West 3.0 mph 8.0 mph 88% 0.00 in 0 W/m2
05:34 27.2 °F 24.1 °F 29.59 in SW 3.0 mph 3.0 mph 88% 0.00 in 0 W/m2
05:40 27.2 °F 24.1 °F 29.60 in WSW 4.0 mph 4.0 mph 88% 0.00 in 0 W/m2
05:46 27.1 °F 24.0 °F 29.59 in West 3.0 mph 5.0 mph 88% 0.00 in 0 W/m2
05:52 27.1 °F 24.0 °F 29.60 in West 3.0 mph 3.0 mph 88% 0.00 in 0 W/m2
05:58 27.1 °F 24.0 °F 29.60 in WSW 4.0 mph 9.0 mph 88% 0.00 in 0 W/m2
06:04 27.1 °F 24.0 °F 29.60 in West 4.0 mph 5.0 mph 88% 0.00 in 0 W/m2
06:10 27.1 °F 24.0 °F 29.60 in West 3.0 mph 4.0 mph 88% 0.00 in 0 W/m2
06:16 27.1 °F 24.0 °F 29.60 in SW 3.0 mph 5.0 mph 88% 0.00 in 0 W/m2
06:22 27.1 °F 24.0 °F 29.60 in WSW 3.0 mph 3.0 mph 88% 0.00 in 0 W/m2
06:28 27.1 °F 24.0 °F 29.60 in SW 3.0 mph 5.0 mph 88% 0.00 in 0 W/m2
06:34 27.1 °F 24.0 °F 29.60 in West 3.0 mph 4.0 mph 88% 0.00 in 5 W/m2
06:40 27.1 °F 24.0 °F 29.60 in West 3.0 mph 4.0 mph 88% 0.00 in 11 W/m2
06:46 27.2 °F 24.1 °F 29.60 in West 3.0 mph 4.0 mph 88% 0.00 in 18 W/m2
06:52 27.2 °F 24.4 °F 29.60 in SW 2.0 mph 3.0 mph 89% 0.00 in 19 W/m2
06:58 27.3 °F 24.5 °F 29.60 in West 2.0 mph 4.0 mph 89% 0.00 in 25 W/m2
07:04 27.3 °F 24.5 °F 29.60 in WSW 3.0 mph 8.0 mph 89% 0.00 in 37 W/m2
07:10 27.4 °F 24.6 °F 29.60 in WSW 2.0 mph 3.0 mph 89% 0.00 in 47 W/m2
07:16 27.6 °F 24.8 °F 29.60 in WSW 3.0 mph 4.0 mph 89% 0.00 in 60 W/m2
07:22 27.7 °F 24.9 °F 29.61 in SW 4.0 mph 6.0 mph 89% 0.00 in 65 W/m2
07:28 27.8 °F 25.0 °F 29.60 in WSW 4.0 mph 7.0 mph 89% 0.00 in 74 W/m2
07:34 28.0 °F 25.2 °F 29.60 in West 3.0 mph 6.0 mph 89% 0.00 in 79 W/m2
07:40 28.1 °F 25.3 °F 29.60 in SW 4.0 mph 4.0 mph 89% 0.00 in 76 W/m2
07:46 28.2 °F 25.4 °F 29.60 in West 3.0 mph 5.0 mph 89% 0.00 in 63 W/m2
07:52 28.2 °F 25.6 °F 29.60 in WSW 3.0 mph 4.0 mph 90% 0.00 in 76 W/m2
07:58 28.2 °F 25.6 °F 29.61 in WSW 4.0 mph 5.0 mph 90% 0.00 in 86 W/m2
08:04 28.2 °F 25.6 °F 29.61 in WSW 4.0 mph 5.0 mph 90% 0.00 in 113 W/m2
08:10 28.4 °F 25.8 °F 29.60 in West 4.0 mph 4.0 mph 90% 0.00 in 116 W/m2
08:16 28.4 °F 25.8 °F 29.60 in WSW 4.0 mph 5.0 mph 90% 0.00 in 84 W/m2
08:22 28.4 °F 25.8 °F 29.60 in SW 4.0 mph 4.0 mph 90% 0.00 in 77 W/m2
08:28 28.5 °F 25.9 °F 29.61 in SW 3.0 mph 5.0 mph 90% 0.00 in 97 W/m2
08:34 28.6 °F 26.0 °F 29.61 in West 3.0 mph 3.0 mph 90% 0.00 in 53 W/m2
08:40 28.6 °F 26.3 °F 29.61 in West 4.0 mph 4.0 mph 91% 0.00 in 70 W/m2
08:46 28.7 °F 26.4 °F 29.61 in WNW 3.0 mph 4.0 mph 91% 0.00 in 72 W/m2
08:52 28.9 °F 26.6 °F 29.61 in West 3.0 mph 7.0 mph 91% 0.00 in 95 W/m2
08:58 29.0 °F 26.7 °F 29.61 in WSW 3.0 mph 7.0 mph 91% 0.00 in 74 W/m2
09:04 29.1 °F 26.8 °F 29.61 in WSW 3.0 mph 3.0 mph 91% 0.00 in 76 W/m2
09:10 29.2 °F 26.9 °F 29.61 in WSW 2.0 mph 5.0 mph 91% 0.00 in 100 W/m2
09:16 29.4 °F 27.1 °F 29.62 in WSW 3.0 mph 5.0 mph 91% 0.00 in 104 W/m2
09:22 29.5 °F 27.2 °F 29.62 in WSW 4.0 mph 4.0 mph 91% 0.00 in 83 W/m2
09:28 29.7 °F 27.4 °F 29.62 in WSW 3.0 mph 4.0 mph 91% 0.00 in 74 W/m2
09:34 29.8 °F 27.5 °F 29.62 in WSW 2.0 mph 3.0 mph 91% 0.00 in 47 W/m2
09:40 29.9 °F 27.6 °F 29.62 in SW 2.0 mph 2.0 mph 91% 0.00 in 56 W/m2
09:46 30.1 °F 28.1 °F 29.62 in WSW 2.0 mph 2.0 mph 92% 0.00 in 63 W/m2
09:52 30.3 °F 28.3 °F 29.62 in WNW 2.0 mph 5.0 mph 92% 0.00 in 46 W/m2
09:58 30.5 °F 28.5 °F 29.62 in NW 3.0 mph 5.0 mph 92% 0.00 in 33 W/m2
10:04 30.6 °F 28.6 °F 29.62 in WNW 2.0 mph 3.0 mph 92% 0.00 in 32 W/m2
10:10 30.8 °F 28.8 °F 29.62 in WNW 2.0 mph 6.0 mph 92% 0.00 in 35 W/m2
10:16 30.8 °F 28.8 °F 29.62 in West 4.0 mph 6.0 mph 92% 0.00 in 105 W/m2
10:22 31.9 °F 29.8 °F 29.62 in WNW 4.0 mph 5.0 mph 92% 0.00 in 336 W/m2
10:28 32.3 °F 30.2 °F 29.62 in WNW 4.0 mph 5.0 mph 92% 0.00 in 213 W/m2
10:34 32.3 °F 30.0 °F 29.62 in WNW 4.0 mph 8.0 mph 91% 0.00 in 531 W/m2
10:40 32.4 °F 29.5 °F 29.62 in WNW 5.0 mph 5.0 mph 89% 0.00 in 223 W/m2
10:46 33.0 °F 29.8 °F 29.62 in West 4.0 mph 5.0 mph 88% 0.00 in 306 W/m2
10:52 33.7 °F 30.0 °F 29.62 in West 4.0 mph 5.0 mph 86% 0.28 in 388 W/m2
10:58 33.9 °F 29.6 °F 29.62 in WSW 5.0 mph 7.0 mph 84% 0.17 in 786 W/m2
11:04 33.5 °F 28.3 °F 29.62 in WNW 6.0 mph 9.0 mph 81% 0.14 in 299 W/m2
11:10 33.8 °F 28.6 °F 29.62 in WNW 5.0 mph 5.0 mph 81% 0.13 in 281 W/m2
11:16 33.7 °F 28.2 °F 29.62 in WSW 5.0 mph 8.0 mph 80% 0.10 in 461 W/m2
11:22 34.1 °F 27.6 °F 29.62 in WNW 6.0 mph 6.0 mph 77% 0.09 in 642 W/m2
11:28 33.9 °F 27.1 °F 29.62 in West 6.0 mph 7.0 mph 76% 0.07 in 200 W/m2
11:34 33.4 °F 27.0 °F 29.63 in WNW 6.0 mph 8.0 mph 77% 0.07 in 272 W/m2
11:40 33.3 °F 27.2 °F 29.63 in WNW 5.0 mph 5.0 mph 78% 0.05 in 193 W/m2
11:46 33.7 °F 27.3 °F 29.63 in NW 5.0 mph 6.0 mph 77% 0.00 in 388 W/m2
11:52 33.8 °F 27.0 °F 29.63 in NW 5.0 mph 7.0 mph 76% 0.00 in 239 W/m2
11:58 33.4 °F 27.0 °F 29.64 in WNW 6.0 mph 7.0 mph 77% 0.00 in 188 W/m2
12:04 33.0 °F 27.5 °F 29.64 in NW 6.0 mph 7.0 mph 80% 0.00 in 346 W/m2
12:10 34.3 °F 28.2 °F 29.63 in West 5.0 mph 10.0 mph 78% 0.00 in 789 W/m2
12:16 35.6 °F 27.8 °F 29.63 in NW 4.0 mph 10.0 mph 73% 0.07 in 898 W/m2
12:22 35.3 °F 27.5 °F 29.63 in NW 4.0 mph 5.0 mph 73% 0.07 in 237 W/m2
12:28 33.8 °F 27.0 °F 29.63 in West 5.0 mph 6.0 mph 76% 0.05 in 232 W/m2
12:34 33.4 °F 27.0 °F 29.63 in West 5.0 mph 8.0 mph 77% 0.00 in 200 W/m2
12:40 33.6 °F 26.5 °F 29.63 in WNW 5.0 mph 5.0 mph 75% 0.00 in 253 W/m2
12:46 34.5 °F 26.7 °F 29.63 in WNW 6.0 mph 8.0 mph 73% 0.00 in 367 W/m2
12:52 33.9 °F 26.5 °F 29.64 in WNW 6.0 mph 15.0 mph 74% 0.00 in 214 W/m2
12:58 33.9 °F 26.5 °F 29.64 in West 7.0 mph 15.0 mph 74% 0.00 in 390 W/m2
13:04 33.8 °F 26.4 °F 29.64 in WNW 7.0 mph 10.0 mph 74% 0.00 in 276 W/m2
13:10 33.8 °F 27.0 °F 29.64 in WNW 6.0 mph 9.0 mph 76% 0.00 in 146 W/m2
13:16 33.7 °F 27.3 °F 29.64 in WNW 5.0 mph 9.0 mph 77% 0.00 in 380 W/m2
13:22 34.3 °F 26.9 °F 29.64 in WNW 5.0 mph 6.0 mph 74% 0.00 in 243 W/m2
13:28 34.1 °F 27.0 °F 29.65 in WNW 5.0 mph 9.0 mph 75% 0.00 in 114 W/m2
13:34 33.0 °F 27.2 °F 29.65 in WNW 5.0 mph 6.0 mph 79% 0.00 in 301 W/m2
13:40 33.4 °F 27.6 °F 29.65 in WNW 5.0 mph 5.0 mph 79% 0.00 in 469 W/m2
13:46 34.4 °F 27.0 °F 29.64 in WNW 5.0 mph 9.0 mph 74% 0.00 in 420 W/m2
13:52 34.9 °F 26.4 °F 29.65 in NW 6.0 mph 8.0 mph 71% 0.00 in 696 W/m2
13:58 35.4 °F 26.2 °F 29.65 in NNW 6.0 mph 11.0 mph 69% 0.00 in 733 W/m2
14:06 35.0 °F 26.2 °F 29.65 in NW 7.0 mph 7.0 mph 70% 0.00 in 334 W/m2
14:12 35.9 °F 26.7 °F 29.65 in West 6.0 mph 6.0 mph 69% 0.00 in 773 W/m2
14:18 35.9 °F 26.7 °F 29.65 in North 6.0 mph 6.0 mph 69% 0.00 in 304 W/m2
14:26 35.5 °F 25.6 °F 29.65 in West 7.0 mph 11.0 mph 67% 0.00 in 476 W/m2
14:32 35.4 °F 25.9 °F 29.65 in West 7.0 mph 7.0 mph 68% 0.00 in 209 W/m2
14:38 34.9 °F 26.1 °F 29.65 in West 5.0 mph 7.0 mph 70% 0.00 in 190 W/m2
14:44 34.9 °F 26.1 °F 29.65 in WNW 5.0 mph 6.0 mph 70% 0.00 in 192 W/m2
14:50 34.9 °F 25.8 °F 29.65 in NW 5.0 mph 6.0 mph 69% 0.00 in 128 W/m2
14:56 34.8 °F 25.3 °F 29.66 in WNW 6.0 mph 10.0 mph 68% 0.00 in 301 W/m2
15:02 35.0 °F 25.5 °F 29.66 in West 6.0 mph 8.0 mph 68% 0.00 in 185 W/m2
15:08 35.1 °F 25.6 °F 29.65 in West 5.0 mph 8.0 mph 68% 0.00 in 179 W/m2
15:16 35.4 °F 25.5 °F 29.66 in West 5.0 mph 10.0 mph 67% 0.00 in 452 W/m2
15:24 35.8 °F 25.5 °F 29.67 in West 7.0 mph 7.0 mph 66% 0.00 in 220 W/m2
15:30 35.7 °F 24.7 °F 29.67 in WSW 6.0 mph 10.0 mph 64% 0.00 in 216 W/m2
15:36 35.4 °F 24.4 °F 29.67 in NW 7.0 mph 10.0 mph 64% 0.00 in 255 W/m2
15:42 35.5 °F 24.5 °F 29.67 in West 6.0 mph 7.0 mph 64% 0.00 in 181 W/m2
15:48 35.4 °F 24.4 °F 29.67 in West 6.0 mph 8.0 mph 64% 0.00 in 181 W/m2
15:54 35.4 °F 24.8 °F 29.67 in WSW 6.0 mph 7.0 mph 65% 0.00 in 176 W/m2
16:00 35.4 °F 25.2 °F 29.67 in West 6.0 mph 6.0 mph 66% 0.00 in 163 W/m2
16:06 35.4 °F 25.2 °F 29.68 in WNW 7.0 mph 16.0 mph 66% 0.00 in 155 W/m2
16:12 35.2 °F 25.0 °F 29.68 in WNW 7.0 mph 7.0 mph 66% 0.00 in 118 W/m2
16:18 35.1 °F 25.6 °F 29.68 in WNW 5.0 mph 7.0 mph 68% 0.00 in 69 W/m2
16:24 34.8 °F 26.0 °F 29.68 in West 5.0 mph 7.0 mph 70% 0.00 in 81 W/m2
16:30 34.1 °F 26.3 °F 29.69 in WNW 7.0 mph 7.0 mph 73% 0.00 in 84 W/m2
16:36 33.7 °F 26.6 °F 29.69 in WNW 6.0 mph 7.0 mph 75% 0.00 in 88 W/m2
16:42 33.5 °F 27.1 °F 29.70 in WNW 5.0 mph 12.0 mph 77% 0.00 in 74 W/m2
16:48 33.5 °F 27.1 °F 29.70 in NW 5.0 mph 12.0 mph 77% 0.00 in 81 W/m2
16:54 33.6 °F 27.2 °F 29.70 in West 5.0 mph 5.0 mph 77% 0.00 in 74 W/m2
17:00 33.7 °F 27.3 °F 29.70 in West 3.0 mph 6.0 mph 77% 0.00 in 62 W/m2
17:06 33.9 °F 27.1 °F 29.70 in WNW 3.0 mph 6.0 mph 76% 0.00 in 56 W/m2
17:12 34.0 °F 26.6 °F 29.70 in West 5.0 mph 8.0 mph 74% 0.00 in 44 W/m2
17:18 34.0 °F 26.3 °F 29.71 in WNW 6.0 mph 9.0 mph 73% 0.00 in 37 W/m2
17:24 33.9 °F 26.2 °F 29.71 in WNW 5.0 mph 7.0 mph 73% 0.00 in 23 W/m2
17:30 33.9 °F 26.2 °F 29.71 in WNW 4.0 mph 4.0 mph 73% 0.00 in 19 W/m2
17:36 33.8 °F 26.4 °F 29.71 in WNW 3.0 mph 4.0 mph 74% 0.00 in 23 W/m2
17:42 33.5 °F 26.4 °F 29.71 in West 4.0 mph 6.0 mph 75% 0.00 in 19 W/m2
17:48 33.3 °F 26.5 °F 29.71 in West 5.0 mph 7.0 mph 76% 0.00 in 16 W/m2
17:54 33.2 °F 26.5 °F 29.72 in SW 5.0 mph 5.0 mph 76% 0.00 in 7 W/m2
18:00 33.2 °F 26.8 °F 29.72 in West 4.0 mph 6.0 mph 77% 0.00 in 0 W/m2
18:06 32.9 °F 27.4 °F 29.72 in WSW 4.0 mph 6.0 mph 80% 0.00 in 0 W/m2
18:12 32.6 °F 27.7 °F 29.73 in WSW 3.0 mph 4.0 mph 82% 0.00 in 0 W/m2
18:18 32.4 °F 27.8 °F 29.73 in WSW 2.0 mph 4.0 mph 83% 0.00 in 0 W/m2
18:24 32.3 °F 28.0 °F 29.73 in WSW 2.0 mph 3.0 mph 84% 0.00 in 0 W/m2
18:30 32.2 °F 28.2 °F 29.73 in West 2.0 mph 4.0 mph 85% 0.00 in 0 W/m2
18:36 32.1 °F 28.4 °F 29.73 in WSW 3.0 mph 5.0 mph 86% 0.00 in 0 W/m2
18:42 32.1 °F 28.4 °F 29.73 in WNW 3.0 mph 5.0 mph 86% 0.00 in 0 W/m2
18:48 31.8 °F 28.4 °F 29.74 in NW 3.0 mph 5.0 mph 87% 0.00 in 0 W/m2
18:54 31.2 °F 27.8 °F 29.74 in WNW 4.0 mph 4.0 mph 87% 0.00 in 0 W/m2
19:00 30.9 °F 27.8 °F 29.75 in NW 3.0 mph 3.0 mph 88% 0.00 in 0 W/m2
19:06 30.8 °F 27.7 °F 29.75 in West 4.0 mph 7.0 mph 88% 0.00 in 0 W/m2
19:12 30.6 °F 27.7 °F 29.75 in NNW 5.0 mph 6.0 mph 89% 0.00 in 0 W/m2
19:18 30.4 °F 27.5 °F 29.75 in West 5.0 mph 7.0 mph 89% 0.00 in 0 W/m2
19:24 30.1 °F 27.5 °F 29.75 in WNW 4.0 mph 6.0 mph 90% 0.00 in 0 W/m2
19:30 29.9 °F 27.3 °F 29.75 in WNW 4.0 mph 4.0 mph 90% 0.00 in 0 W/m2
19:36 29.9 °F 27.3 °F 29.75 in WNW 3.0 mph 4.0 mph 90% 0.00 in 0 W/m2
19:42 30.1 °F 27.5 °F 29.75 in West 3.0 mph 3.0 mph 90% 0.00 in 0 W/m2
19:48 30.3 °F 27.7 °F 29.75 in WSW 3.0 mph 3.0 mph 90% 0.00 in 0 W/m2
19:54 30.4 °F 27.8 °F 29.75 in WSW 2.0 mph 3.0 mph 90% 0.00 in 0 W/m2
20:00 30.5 °F 27.9 °F 29.76 in WSW 2.0 mph 3.0 mph 90% 0.00 in 0 W/m2
20:06 30.6 °F 28.3 °F 29.76 in WSW 2.0 mph 3.0 mph 91% 0.00 in 0 W/m2
20:12 30.7 °F 28.4 °F 29.76 in WSW 2.0 mph 2.0 mph 91% 0.00 in 0 W/m2
20:18 30.7 °F 28.4 °F 29.76 in West 2.0 mph 2.0 mph 91% 0.00 in 0 W/m2
20:24 30.7 °F 28.4 °F 29.76 in WNW 3.0 mph 3.0 mph 91% 0.00 in 0 W/m2
20:30 30.7 °F 28.4 °F 29.76 in WNW 3.0 mph 3.0 mph 91% 0.00 in 0 W/m2
20:36 30.7 °F 28.4 °F 29.76 in WNW 2.0 mph 3.0 mph 91% 0.00 in 0 W/m2
20:42 30.6 °F 28.3 °F 29.76 in WNW 3.0 mph 3.0 mph 91% 0.00 in 0 W/m2
20:48 30.5 °F 28.2 °F 29.76 in WNW 3.0 mph 4.0 mph 91% 0.00 in 0 W/m2
20:54 30.5 °F 28.2 °F 29.76 in NW 3.0 mph 3.0 mph 91% 0.00 in 0 W/m2
21:00 30.4 °F 28.1 °F 29.76 in West 3.0 mph 4.0 mph 91% 0.00 in 0 W/m2
21:06 30.4 °F 28.1 °F 29.76 in West 3.0 mph 4.0 mph 91% 0.00 in 0 W/m2
21:12 30.3 °F 28.0 °F 29.76 in WNW 4.0 mph 4.0 mph 91% 0.00 in 0 W/m2
21:18 30.3 °F 28.0 °F 29.76 in NW 3.0 mph 5.0 mph 91% 0.00 in 0 W/m2
21:24 30.3 °F 28.0 °F 29.77 in WNW 3.0 mph 5.0 mph 91% 0.00 in 0 W/m2
21:30 30.2 °F 27.9 °F 29.77 in West 3.0 mph 3.0 mph 91% 0.00 in 0 W/m2
21:36 30.2 °F 27.6 °F 29.77 in NW 3.0 mph 4.0 mph 90% 0.00 in 0 W/m2
21:42 30.3 °F 27.7 °F 29.77 in West 3.0 mph 4.0 mph 90% 0.00 in 0 W/m2
21:48 30.3 °F 27.7 °F 29.77 in West 4.0 mph 6.0 mph 90% 0.00 in 0 W/m2
21:54 30.2 °F 27.6 °F 29.78 in West 4.0 mph 8.0 mph 90% 0.00 in 0 W/m2
22:00 30.1 °F 27.5 °F 29.78 in NW 3.0 mph 5.0 mph 90% 0.00 in 0 W/m2
22:06 30.1 °F 27.5 °F 29.78 in NW 3.0 mph 6.0 mph 90% 0.00 in 0 W/m2
22:12 30.0 °F 27.4 °F 29.78 in WNW 3.0 mph 4.0 mph 90% 0.00 in 0 W/m2
22:18 30.1 °F 27.5 °F 29.78 in West 3.0 mph 4.0 mph 90% 0.00 in 0 W/m2
22:24 30.1 °F 27.3 °F 29.78 in West 3.0 mph 4.0 mph 89% 0.00 in 0 W/m2
22:30 30.1 °F 27.3 °F 29.78 in West 3.0 mph 3.0 mph 89% 0.00 in 0 W/m2
22:36 30.1 °F 27.3 °F 29.78 in West 3.0 mph 5.0 mph 89% 0.00 in 0 W/m2
22:42 30.1 °F 27.3 °F 29.78 in WNW 3.0 mph 3.0 mph 89% 0.00 in 0 W/m2
22:48 30.0 °F 27.2 °F 29.78 in WNW 3.0 mph 4.0 mph 89% 0.00 in 0 W/m2
22:54 30.0 °F 27.2 °F 29.78 in WNW 4.0 mph 6.0 mph 89% 0.00 in 0 W/m2
23:00 30.0 °F 26.9 °F 29.78 in North 3.0 mph 6.0 mph 88% 0.00 in 0 W/m2
23:06 30.0 °F 26.9 °F 29.78 in WNW 3.0 mph 6.0 mph 88% 0.00 in 0 W/m2
23:12 29.9 °F 26.8 °F 29.78 in NW 3.0 mph 5.0 mph 88% 0.00 in 0 W/m2
23:18 29.9 °F 26.8 °F 29.79 in WNW 3.0 mph 5.0 mph 88% 0.00 in 0 W/m2
23:24 29.8 °F 26.7 °F 29.78 in WNW 2.0 mph 5.0 mph 88% 0.00 in 0 W/m2
23:30 29.7 °F 26.6 °F 29.78 in NW 3.0 mph 5.0 mph 88% 0.00 in 0 W/m2
23:36 29.7 °F 26.6 °F 29.78 in WNW 2.0 mph 5.0 mph 88% 0.00 in 0 W/m2
23:42 29.6 °F 26.5 °F 29.78 in WNW 3.0 mph 4.0 mph 88% 0.00 in 0 W/m2
23:48 29.5 °F 26.4 °F 29.78 in NW 3.0 mph 5.0 mph 88% 0.00 in 0 W/m2
23:54 29.4 °F 26.3 °F 29.79 in WNW 4.0 mph 6.0 mph 88% 0.00 in 0 W/m2
Country Meadow, Clay, NY, USA
Compliments of Weather Underground - 2 mb